sensor_id;sensor_type;location;lat;lon;timestamp;P1;durP1;ratioP1;P2;durP2;ratioP2
27746;SDS011;15138;51.012;4.692;2023-02-01T00:01:23;26.98;;;7.22;;
27746;SDS011;15138;51.012;4.692;2023-02-01T00:03:51;27.98;;;5.80;;
27746;SDS011;15138;51.012;4.692;2023-02-01T00:06:20;28.73;;;7.10;;
27746;SDS011;15138;51.012;4.692;2023-02-01T00:08:48;24.55;;;5.93;;
27746;SDS011;15138;51.012;4.692;2023-02-01T00:11:21;23.88;;;5.63;;
27746;SDS011;15138;51.012;4.692;2023-02-01T00:13:50;26.73;;;5.63;;
27746;SDS011;15138;51.012;4.692;2023-02-01T00:16:20;34.70;;;7.38;;
27746;SDS011;15138;51.012;4.692;2023-02-01T00:18:49;34.97;;;7.20;;
27746;SDS011;15138;51.012;4.692;2023-02-01T00:21:19;23.38;;;5.32;;
27746;SDS011;15138;51.012;4.692;2023-02-01T00:23:48;31.67;;;6.53;;
27746;SDS011;15138;51.012;4.692;2023-02-01T00:26:17;23.30;;;6.13;;
27746;SDS011;15138;51.012;4.692;2023-02-01T00:28:48;25.83;;;5.40;;
27746;SDS011;15138;51.012;4.692;2023-02-01T00:31:16;36.30;;;6.97;;
27746;SDS011;15138;51.012;4.692;2023-02-01T00:33:46;23.25;;;6.57;;
27746;SDS011;15138;51.012;4.692;2023-02-01T00:36:15;29.67;;;6.55;;
27746;SDS011;15138;51.012;4.692;2023-02-01T00:38:44;29.85;;;6.35;;
27746;SDS011;15138;51.012;4.692;2023-02-01T00:41:13;26.67;;;5.97;;
27746;SDS011;15138;51.012;4.692;2023-02-01T00:43:43;34.55;;;6.20;;
27746;SDS011;15138;51.012;4.692;2023-02-01T00:46:13;31.60;;;5.78;;
27746;SDS011;15138;51.012;4.692;2023-02-01T00:48:43;26.33;;;5.65;;
27746;SDS011;15138;51.012;4.692;2023-02-01T00:51:12;32.17;;;6.10;;
27746;SDS011;15138;51.012;4.692;2023-02-01T00:53:42;23.35;;;4.82;;
27746;SDS011;15138;51.012;4.692;2023-02-01T00:56:11;10.85;;;3.50;;
27746;SDS011;15138;51.012;4.692;2023-02-01T00:58:40;31.33;;;4.70;;
27746;SDS011;15138;51.012;4.692;2023-02-01T01:01:12;28.42;;;5.10;;
27746;SDS011;15138;51.012;4.692;2023-02-01T01:03:44;22.27;;;3.92;;
27746;SDS011;15138;51.012;4.692;2023-02-01T01:06:15;30.35;;;4.60;;
27746;SDS011;15138;51.012;4.692;2023-02-01T01:08:44;21.08;;;4.10;;
27746;SDS011;15138;51.012;4.692;2023-02-01T01:11:15;24.88;;;5.15;;
27746;SDS011;15138;51.012;4.692;2023-02-01T01:13:45;17.08;;;3.85;;
27746;SDS011;15138;51.012;4.692;2023-02-01T01:16:18;28.80;;;5.20;;
27746;SDS011;15138;51.012;4.692;2023-02-01T01:18:47;21.40;;;4.82;;
27746;SDS011;15138;51.012;4.692;2023-02-01T01:21:16;27.02;;;5.57;;
27746;SDS011;15138;51.012;4.692;2023-02-01T01:23:46;24.17;;;4.75;;
27746;SDS011;15138;51.012;4.692;2023-02-01T01:26:16;32.70;;;4.95;;
27746;SDS011;15138;51.012;4.692;2023-02-01T01:28:45;25.20;;;5.43;;
27746;SDS011;15138;51.012;4.692;2023-02-01T01:31:15;16.60;;;3.97;;
27746;SDS011;15138;51.012;4.692;2023-02-01T01:33:46;20.38;;;3.88;;
27746;SDS011;15138;51.012;4.692;2023-02-01T01:36:16;24.70;;;3.20;;
27746;SDS011;15138;51.012;4.692;2023-02-01T01:38:45;13.07;;;2.65;;
27746;SDS011;15138;51.012;4.692;2023-02-01T01:41:15;25.40;;;5.15;;
27746;SDS011;15138;51.012;4.692;2023-02-01T01:43:49;27.60;;;5.05;;
27746;SDS011;15138;51.012;4.692;2023-02-01T01:46:20;23.55;;;4.55;;
27746;SDS011;15138;51.012;4.692;2023-02-01T01:48:53;21.95;;;4.57;;
27746;SDS011;15138;51.012;4.692;2023-02-01T01:51:26;27.77;;;4.70;;
27746;SDS011;15138;51.012;4.692;2023-02-01T01:53:59;34.08;;;5.18;;
27746;SDS011;15138;51.012;4.692;2023-02-01T01:56:32;29.90;;;5.95;;
27746;SDS011;15138;51.012;4.692;2023-02-01T01:59:01;26.63;;;4.55;;
27746;SDS011;15138;51.012;4.692;2023-02-01T02:01:31;33.72;;;4.95;;
27746;SDS011;15138;51.012;4.692;2023-02-01T02:04:01;32.05;;;4.97;;
27746;SDS011;15138;51.012;4.692;2023-02-01T02:06:35;29.95;;;5.90;;
27746;SDS011;15138;51.012;4.692;2023-02-01T02:09:08;37.15;;;5.22;;
27746;SDS011;15138;51.012;4.692;2023-02-01T02:11:36;27.25;;;4.63;;
27746;SDS011;15138;51.012;4.692;2023-02-01T02:14:04;23.05;;;4.28;;
27746;SDS011;15138;51.012;4.692;2023-02-01T02:16:40;33.75;;;5.57;;
27746;SDS011;15138;51.012;4.692;2023-02-01T02:19:25;35.92;;;4.53;;
27746;SDS011;15138;51.012;4.692;2023-02-01T02:22:07;23.60;;;4.22;;
27746;SDS011;15138;51.012;4.692;2023-02-01T02:24:58;27.10;;;4.53;;
27746;SDS011;15138;51.012;4.692;2023-02-01T02:28:07;28.95;;;4.22;;
27746;SDS011;15138;51.012;4.692;2023-02-01T02:30:54;28.30;;;4.93;;
27746;SDS011;15138;51.012;4.692;2023-02-01T02:33:41;21.35;;;3.38;;
27746;SDS011;15138;51.012;4.692;2023-02-01T02:36:33;26.20;;;3.90;;
27746;SDS011;15138;51.012;4.692;2023-02-01T02:39:07;18.02;;;3.95;;
27746;SDS011;15138;51.012;4.692;2023-02-01T02:44:33;24.50;;;3.67;;
27746;SDS011;15138;51.012;4.692;2023-02-01T02:47:27;27.02;;;4.85;;
27746;SDS011;15138;51.012;4.692;2023-02-01T02:50:08;33.47;;;4.70;;
27746;SDS011;15138;51.012;4.692;2023-02-01T02:53:00;33.42;;;4.97;;
27746;SDS011;15138;51.012;4.692;2023-02-01T02:55:49;28.38;;;4.13;;
27746;SDS011;15138;51.012;4.692;2023-02-01T02:58:33;31.85;;;5.28;;
27746;SDS011;15138;51.012;4.692;2023-02-01T03:01:19;29.15;;;4.20;;
27746;SDS011;15138;51.012;4.692;2023-02-01T03:04:05;14.68;;;3.35;;
27746;SDS011;15138;51.012;4.692;2023-02-01T03:06:38;32.28;;;4.15;;
27746;SDS011;15138;51.012;4.692;2023-02-01T03:09:08;26.35;;;4.10;;
27746;SDS011;15138;51.012;4.692;2023-02-01T03:11:41;17.98;;;3.63;;
27746;SDS011;15138;51.012;4.692;2023-02-01T03:14:29;28.17;;;4.05;;
27746;SDS011;15138;51.012;4.692;2023-02-01T03:17:01;16.60;;;3.78;;
27746;SDS011;15138;51.012;4.692;2023-02-01T03:19:33;21.65;;;3.75;;
27746;SDS011;15138;51.012;4.692;2023-02-01T03:22:06;24.33;;;4.28;;
27746;SDS011;15138;51.012;4.692;2023-02-01T03:24:39;26.38;;;4.57;;
27746;SDS011;15138;51.012;4.692;2023-02-01T03:27:10;21.98;;;4.30;;
27746;SDS011;15138;51.012;4.692;2023-02-01T03:29:42;23.38;;;3.47;;
27746;SDS011;15138;51.012;4.692;2023-02-01T03:32:15;21.00;;;3.40;;
27746;SDS011;15138;51.012;4.692;2023-02-01T03:34:45;31.92;;;4.35;;
27746;SDS011;15138;51.012;4.692;2023-02-01T03:37:16;27.33;;;3.75;;
27746;SDS011;15138;51.012;4.692;2023-02-01T03:39:52;23.10;;;4.35;;
27746;SDS011;15138;51.012;4.692;2023-02-01T03:42:26;28.35;;;5.07;;
27746;SDS011;15138;51.012;4.692;2023-02-01T03:44:58;22.77;;;4.25;;
27746;SDS011;15138;51.012;4.692;2023-02-01T03:47:33;26.50;;;4.30;;
27746;SDS011;15138;51.012;4.692;2023-02-01T03:50:05;19.60;;;4.55;;
27746;SDS011;15138;51.012;4.692;2023-02-01T03:52:38;18.02;;;3.85;;
27746;SDS011;15138;51.012;4.692;2023-02-01T03:55:10;32.83;;;4.28;;
27746;SDS011;15138;51.012;4.692;2023-02-01T03:57:45;32.72;;;4.93;;
27746;SDS011;15138;51.012;4.692;2023-02-01T04:00:20;26.92;;;4.20;;
27746;SDS011;15138;51.012;4.692;2023-02-01T04:02:51;28.50;;;4.72;;
27746;SDS011;15138;51.012;4.692;2023-02-01T04:05:21;24.30;;;5.03;;
27746;SDS011;15138;51.012;4.692;2023-02-01T04:07:51;23.48;;;3.55;;
27746;SDS011;15138;51.012;4.692;2023-02-01T04:10:20;30.90;;;5.18;;
27746;SDS011;15138;51.012;4.692;2023-02-01T04:12:49;29.77;;;5.75;;
27746;SDS011;15138;51.012;4.692;2023-02-01T04:15:17;29.40;;;5.07;;
27746;SDS011;15138;51.012;4.692;2023-02-01T04:17:46;17.67;;;3.15;;
27746;SDS011;15138;51.012;4.692;2023-02-01T04:20:14;25.92;;;4.68;;
27746;SDS011;15138;51.012;4.692;2023-02-01T04:22:43;25.08;;;4.07;;
27746;SDS011;15138;51.012;4.692;2023-02-01T04:25:13;28.83;;;3.83;;
27746;SDS011;15138;51.012;4.692;2023-02-01T04:27:43;26.42;;;4.55;;
27746;SDS011;15138;51.012;4.692;2023-02-01T04:30:12;27.00;;;4.43;;
27746;SDS011;15138;51.012;4.692;2023-02-01T04:32:40;23.60;;;3.97;;
27746;SDS011;15138;51.012;4.692;2023-02-01T04:35:09;31.92;;;5.60;;
27746;SDS011;15138;51.012;4.692;2023-02-01T04:37:38;25.67;;;5.18;;
27746;SDS011;15138;51.012;4.692;2023-02-01T04:40:06;32.20;;;5.30;;
27746;SDS011;15138;51.012;4.692;2023-02-01T04:42:37;26.65;;;4.60;;
27746;SDS011;15138;51.012;4.692;2023-02-01T04:45:06;21.52;;;4.60;;
27746;SDS011;15138;51.012;4.692;2023-02-01T04:47:35;28.92;;;3.75;;
27746;SDS011;15138;51.012;4.692;2023-02-01T04:50:03;31.42;;;4.95;;
27746;SDS011;15138;51.012;4.692;2023-02-01T04:52:34;33.20;;;4.68;;
27746;SDS011;15138;51.012;4.692;2023-02-01T04:55:02;22.00;;;3.38;;
27746;SDS011;15138;51.012;4.692;2023-02-01T04:57:31;18.75;;;3.03;;
27746;SDS011;15138;51.012;4.692;2023-02-01T05:00:01;33.58;;;5.88;;
27746;SDS011;15138;51.012;4.692;2023-02-01T05:02:29;31.95;;;4.93;;
27746;SDS011;15138;51.012;4.692;2023-02-01T05:04:58;24.10;;;3.92;;
27746;SDS011;15138;51.012;4.692;2023-02-01T05:07:27;28.77;;;4.57;;
27746;SDS011;15138;51.012;4.692;2023-02-01T05:09:55;25.83;;;4.35;;
27746;SDS011;15138;51.012;4.692;2023-02-01T05:12:23;31.20;;;4.82;;
27746;SDS011;15138;51.012;4.692;2023-02-01T05:15:10;28.58;;;4.05;;
27746;SDS011;15138;51.012;4.692;2023-02-01T05:17:38;20.45;;;3.83;;
27746;SDS011;15138;51.012;4.692;2023-02-01T05:20:07;28.70;;;5.22;;
27746;SDS011;15138;51.012;4.692;2023-02-01T05:22:37;26.88;;;4.35;;
27746;SDS011;15138;51.012;4.692;2023-02-01T05:25:05;33.30;;;4.28;;
27746;SDS011;15138;51.012;4.692;2023-02-01T05:27:34;32.42;;;4.70;;
27746;SDS011;15138;51.012;4.692;2023-02-01T05:30:03;27.98;;;5.43;;
27746;SDS011;15138;51.012;4.692;2023-02-01T05:32:33;29.50;;;4.97;;
27746;SDS011;15138;51.012;4.692;2023-02-01T05:35:02;21.65;;;3.97;;
27746;SDS011;15138;51.012;4.692;2023-02-01T05:37:30;41.33;;;5.15;;
27746;SDS011;15138;51.012;4.692;2023-02-01T05:39:59;33.40;;;4.82;;
27746;SDS011;15138;51.012;4.692;2023-02-01T05:42:27;22.83;;;3.70;;
27746;SDS011;15138;51.012;4.692;2023-02-01T05:44:55;27.52;;;4.95;;
27746;SDS011;15138;51.012;4.692;2023-02-01T05:47:24;12.00;;;1.63;;
27746;SDS011;15138;51.012;4.692;2023-02-01T05:49:53;32.03;;;4.82;;
27746;SDS011;15138;51.012;4.692;2023-02-01T05:52:22;29.23;;;4.30;;
27746;SDS011;15138;51.012;4.692;2023-02-01T05:54:50;28.45;;;3.78;;
27746;SDS011;15138;51.012;4.692;2023-02-01T05:57:18;20.13;;;3.35;;
27746;SDS011;15138;51.012;4.692;2023-02-01T05:59:47;20.15;;;3.83;;
27746;SDS011;15138;51.012;4.692;2023-02-01T06:02:15;28.77;;;4.50;;
27746;SDS011;15138;51.012;4.692;2023-02-01T06:04:44;38.63;;;4.68;;
27746;SDS011;15138;51.012;4.692;2023-02-01T06:07:13;15.48;;;2.63;;
27746;SDS011;15138;51.012;4.692;2023-02-01T06:09:41;28.33;;;4.38;;
27746;SDS011;15138;51.012;4.692;2023-02-01T06:12:10;28.67;;;4.32;;
27746;SDS011;15138;51.012;4.692;2023-02-01T06:14:38;25.92;;;4.43;;
27746;SDS011;15138;51.012;4.692;2023-02-01T06:17:07;29.75;;;4.97;;
27746;SDS011;15138;51.012;4.692;2023-02-01T06:19:35;22.50;;;3.97;;
27746;SDS011;15138;51.012;4.692;2023-02-01T06:22:03;33.92;;;5.47;;
27746;SDS011;15138;51.012;4.692;2023-02-01T06:24:34;20.13;;;3.45;;
27746;SDS011;15138;51.012;4.692;2023-02-01T06:27:02;24.98;;;4.57;;
27746;SDS011;15138;51.012;4.692;2023-02-01T06:29:31;19.30;;;3.35;;
27746;SDS011;15138;51.012;4.692;2023-02-01T06:31:59;22.80;;;3.70;;
27746;SDS011;15138;51.012;4.692;2023-02-01T06:34:28;29.05;;;4.55;;
27746;SDS011;15138;51.012;4.692;2023-02-01T06:36:56;29.20;;;4.32;;
27746;SDS011;15138;51.012;4.692;2023-02-01T06:39:25;11.68;;;2.10;;
27746;SDS011;15138;51.012;4.692;2023-02-01T06:41:55;30.50;;;4.93;;
27746;SDS011;15138;51.012;4.692;2023-02-01T06:44:23;33.65;;;4.95;;
27746;SDS011;15138;51.012;4.692;2023-02-01T06:46:51;27.45;;;4.72;;
27746;SDS011;15138;51.012;4.692;2023-02-01T06:49:21;33.33;;;5.95;;
27746;SDS011;15138;51.012;4.692;2023-02-01T06:51:50;25.70;;;3.38;;
27746;SDS011;15138;51.012;4.692;2023-02-01T06:54:18;25.92;;;4.30;;
27746;SDS011;15138;51.012;4.692;2023-02-01T06:56:47;27.98;;;4.10;;
27746;SDS011;15138;51.012;4.692;2023-02-01T06:59:17;18.83;;;3.70;;
27746;SDS011;15138;51.012;4.692;2023-02-01T07:01:46;21.13;;;3.05;;
27746;SDS011;15138;51.012;4.692;2023-02-01T07:04:14;26.45;;;4.57;;
27746;SDS011;15138;51.012;4.692;2023-02-01T07:06:43;37.72;;;5.63;;
27746;SDS011;15138;51.012;4.692;2023-02-01T07:09:11;31.23;;;5.25;;
27746;SDS011;15138;51.012;4.692;2023-02-01T07:11:40;17.55;;;3.05;;
27746;SDS011;15138;51.012;4.692;2023-02-01T07:14:10;33.95;;;6.13;;
27746;SDS011;15138;51.012;4.692;2023-02-01T07:16:40;36.13;;;5.10;;
27746;SDS011;15138;51.012;4.692;2023-02-01T07:19:09;27.52;;;3.97;;
27746;SDS011;15138;51.012;4.692;2023-02-01T07:21:37;32.80;;;4.47;;
27746;SDS011;15138;51.012;4.692;2023-02-01T07:24:06;37.58;;;5.60;;
27746;SDS011;15138;51.012;4.692;2023-02-01T07:26:34;29.38;;;5.22;;
27746;SDS011;15138;51.012;4.692;2023-02-01T07:29:03;24.25;;;5.47;;
27746;SDS011;15138;51.012;4.692;2023-02-01T07:31:31;24.70;;;4.43;;
27746;SDS011;15138;51.012;4.692;2023-02-01T07:34:01;36.70;;;5.50;;
27746;SDS011;15138;51.012;4.692;2023-02-01T07:36:29;28.20;;;4.40;;
27746;SDS011;15138;51.012;4.692;2023-02-01T07:38:57;12.40;;;3.65;;
27746;SDS011;15138;51.012;4.692;2023-02-01T07:41:26;26.52;;;3.97;;
27746;SDS011;15138;51.012;4.692;2023-02-01T07:43:55;29.98;;;4.90;;
27746;SDS011;15138;51.012;4.692;2023-02-01T07:46:24;35.50;;;5.70;;
27746;SDS011;15138;51.012;4.692;2023-02-01T07:48:52;34.88;;;5.05;;
27746;SDS011;15138;51.012;4.692;2023-02-01T07:51:22;26.02;;;4.70;;
27746;SDS011;15138;51.012;4.692;2023-02-01T07:53:50;29.33;;;5.03;;
27746;SDS011;15138;51.012;4.692;2023-02-01T07:56:21;20.65;;;3.55;;
27746;SDS011;15138;51.012;4.692;2023-02-01T07:58:52;25.67;;;4.75;;
27746;SDS011;15138;51.012;4.692;2023-02-01T08:01:23;25.75;;;3.78;;
27746;SDS011;15138;51.012;4.692;2023-02-01T08:03:53;24.38;;;4.55;;
27746;SDS011;15138;51.012;4.692;2023-02-01T08:06:24;24.23;;;3.72;;
27746;SDS011;15138;51.012;4.692;2023-02-01T08:08:53;31.10;;;5.28;;
27746;SDS011;15138;51.012;4.692;2023-02-01T08:11:22;17.75;;;2.55;;
27746;SDS011;15138;51.012;4.692;2023-02-01T08:13:51;18.55;;;3.30;;
27746;SDS011;15138;51.012;4.692;2023-02-01T08:16:21;32.58;;;4.13;;
27746;SDS011;15138;51.012;4.692;2023-02-01T08:18:51;16.95;;;3.50;;
27746;SDS011;15138;51.012;4.692;2023-02-01T08:21:21;18.45;;;3.05;;
27746;SDS011;15138;51.012;4.692;2023-02-01T08:23:52;29.83;;;3.67;;
27746;SDS011;15138;51.012;4.692;2023-02-01T08:26:23;19.17;;;3.13;;
27746;SDS011;15138;51.012;4.692;2023-02-01T08:28:53;23.35;;;4.00;;
27746;SDS011;15138;51.012;4.692;2023-02-01T08:31:23;34.28;;;4.68;;
27746;SDS011;15138;51.012;4.692;2023-02-01T08:33:53;26.88;;;4.68;;
27746;SDS011;15138;51.012;4.692;2023-02-01T08:36:23;15.48;;;2.40;;
27746;SDS011;15138;51.012;4.692;2023-02-01T08:38:55;26.92;;;4.97;;
27746;SDS011;15138;51.012;4.692;2023-02-01T08:41:24;16.70;;;2.75;;
27746;SDS011;15138;51.012;4.692;2023-02-01T08:43:54;23.98;;;4.45;;
27746;SDS011;15138;51.012;4.692;2023-02-01T08:46:23;21.17;;;3.53;;
27746;SDS011;15138;51.012;4.692;2023-02-01T08:48:51;31.13;;;5.30;;
27746;SDS011;15138;51.012;4.692;2023-02-01T08:51:21;28.48;;;4.40;;
27746;SDS011;15138;51.012;4.692;2023-02-01T08:53:50;41.47;;;5.35;;
27746;SDS011;15138;51.012;4.692;2023-02-01T08:56:20;21.25;;;4.00;;
27746;SDS011;15138;51.012;4.692;2023-02-01T08:58:49;18.30;;;3.10;;
27746;SDS011;15138;51.012;4.692;2023-02-01T09:01:17;31.00;;;5.07;;
27746;SDS011;15138;51.012;4.692;2023-02-01T09:03:46;25.83;;;4.40;;
27746;SDS011;15138;51.012;4.692;2023-02-01T09:06:14;25.60;;;4.38;;
27746;SDS011;15138;51.012;4.692;2023-02-01T09:08:43;32.08;;;4.88;;
27746;SDS011;15138;51.012;4.692;2023-02-01T09:11:13;39.08;;;5.43;;
27746;SDS011;15138;51.012;4.692;2023-02-01T09:13:44;30.17;;;5.40;;
27746;SDS011;15138;51.012;4.692;2023-02-01T09:16:12;41.08;;;6.55;;
27746;SDS011;15138;51.012;4.692;2023-02-01T09:18:42;36.40;;;5.25;;
27746;SDS011;15138;51.012;4.692;2023-02-01T09:21:27;31.38;;;4.60;;
27746;SDS011;15138;51.012;4.692;2023-02-01T09:23:55;18.45;;;4.60;;
27746;SDS011;15138;51.012;4.692;2023-02-01T09:26:24;25.13;;;4.20;;
27746;SDS011;15138;51.012;4.692;2023-02-01T09:28:59;28.02;;;4.38;;
27746;SDS011;15138;51.012;4.692;2023-02-01T09:31:28;44.33;;;5.80;;
27746;SDS011;15138;51.012;4.692;2023-02-01T09:33:57;21.23;;;4.15;;
27746;SDS011;15138;51.012;4.692;2023-02-01T09:36:25;22.10;;;3.45;;
27746;SDS011;15138;51.012;4.692;2023-02-01T09:38:56;27.63;;;5.30;;
27746;SDS011;15138;51.012;4.692;2023-02-01T09:41:35;19.73;;;3.03;;
27746;SDS011;15138;51.012;4.692;2023-02-01T09:44:18;35.92;;;5.47;;
27746;SDS011;15138;51.012;4.692;2023-02-01T09:47:10;13.70;;;2.67;;
27746;SDS011;15138;51.012;4.692;2023-02-01T09:49:43;21.08;;;3.45;;
27746;SDS011;15138;51.012;4.692;2023-02-01T09:52:19;22.23;;;3.83;;
27746;SDS011;15138;51.012;4.692;2023-02-01T09:54:55;15.70;;;3.40;;
27746;SDS011;15138;51.012;4.692;2023-02-01T09:57:31;37.53;;;4.82;;
27746;SDS011;15138;51.012;4.692;2023-02-01T10:00:14;33.33;;;5.18;;
27746;SDS011;15138;51.012;4.692;2023-02-01T10:02:48;21.05;;;3.72;;
27746;SDS011;15138;51.012;4.692;2023-02-01T10:05:18;27.70;;;5.20;;
27746;SDS011;15138;51.012;4.692;2023-02-01T10:07:59;38.03;;;5.68;;
27746;SDS011;15138;51.012;4.692;2023-02-01T10:10:35;7.15;;;1.60;;
27746;SDS011;15138;51.012;4.692;2023-02-01T10:16:13;12.10;;;2.63;;
27746;SDS011;15138;51.012;4.692;2023-02-01T10:18:51;27.88;;;4.30;;
27746;SDS011;15138;51.012;4.692;2023-02-01T10:21:42;33.03;;;4.00;;
27746;SDS011;15138;51.012;4.692;2023-02-01T10:27:13;29.08;;;4.13;;
27746;SDS011;15138;51.012;4.692;2023-02-01T10:29:45;20.60;;;2.70;;
27746;SDS011;15138;51.012;4.692;2023-02-01T10:32:21;16.85;;;3.45;;
27746;SDS011;15138;51.012;4.692;2023-02-01T10:34:53;21.80;;;4.15;;
27746;SDS011;15138;51.012;4.692;2023-02-01T10:37:27;23.65;;;3.45;;
27746;SDS011;15138;51.012;4.692;2023-02-01T10:39:58;24.58;;;3.80;;
27746;SDS011;15138;51.012;4.692;2023-02-01T10:42:31;13.55;;;2.92;;
27746;SDS011;15138;51.012;4.692;2023-02-01T10:45:01;26.77;;;4.53;;
27746;SDS011;15138;51.012;4.692;2023-02-01T10:47:33;17.88;;;3.35;;
27746;SDS011;15138;51.012;4.692;2023-02-01T10:50:03;5.28;;;1.58;;
27746;SDS011;15138;51.012;4.692;2023-02-01T10:52:42;12.02;;;2.50;;
27746;SDS011;15138;51.012;4.692;2023-02-01T10:55:27;30.60;;;4.82;;
27746;SDS011;15138;51.012;4.692;2023-02-01T10:58:00;33.22;;;5.07;;
27746;SDS011;15138;51.012;4.692;2023-02-01T11:00:34;23.90;;;3.72;;
27746;SDS011;15138;51.012;4.692;2023-02-01T11:03:22;25.88;;;4.15;;
27746;SDS011;15138;51.012;4.692;2023-02-01T11:06:09;15.70;;;3.15;;
27746;SDS011;15138;51.012;4.692;2023-02-01T11:08:47;18.52;;;2.85;;
27746;SDS011;15138;51.012;4.692;2023-02-01T11:11:18;9.48;;;2.08;;
27746;SDS011;15138;51.012;4.692;2023-02-01T11:13:51;18.08;;;3.28;;
27746;SDS011;15138;51.012;4.692;2023-02-01T11:16:23;12.88;;;3.17;;
27746;SDS011;15138;51.012;4.692;2023-02-01T11:18:59;21.73;;;3.20;;
27746;SDS011;15138;51.012;4.692;2023-02-01T11:21:28;13.35;;;2.60;;
27746;SDS011;15138;51.012;4.692;2023-02-01T11:24:00;16.23;;;3.42;;
27746;SDS011;15138;51.012;4.692;2023-02-01T11:29:05;24.98;;;3.65;;
27746;SDS011;15138;51.012;4.692;2023-02-01T11:31:38;16.05;;;3.05;;
27746;SDS011;15138;51.012;4.692;2023-02-01T11:34:11;20.45;;;3.10;;
27746;SDS011;15138;51.012;4.692;2023-02-01T11:36:42;9.50;;;2.22;;
27746;SDS011;15138;51.012;4.692;2023-02-01T11:39:18;32.85;;;3.97;;
27746;SDS011;15138;51.012;4.692;2023-02-01T11:41:55;20.45;;;3.17;;
27746;SDS011;15138;51.012;4.692;2023-02-01T11:44:30;17.17;;;2.80;;
27746;SDS011;15138;51.012;4.692;2023-02-01T11:49:54;7.60;;;1.70;;
27746;SDS011;15138;51.012;4.692;2023-02-01T11:52:31;16.10;;;2.10;;
27746;SDS011;15138;51.012;4.692;2023-02-01T11:55:15;9.63;;;2.70;;
27746;SDS011;15138;51.012;4.692;2023-02-01T11:58:05;5.60;;;1.60;;
27746;SDS011;15138;51.012;4.692;2023-02-01T12:00:47;18.27;;;3.67;;
27746;SDS011;15138;51.012;4.692;2023-02-01T12:06:28;11.27;;;1.85;;
27746;SDS011;15138;51.012;4.692;2023-02-01T12:09:08;15.90;;;3.00;;
27746;SDS011;15138;51.012;4.692;2023-02-01T12:11:48;12.30;;;2.45;;
27746;SDS011;15138;51.012;4.692;2023-02-01T12:14:31;14.45;;;2.33;;
27746;SDS011;15138;51.012;4.692;2023-02-01T12:17:18;16.17;;;2.60;;
27746;SDS011;15138;51.012;4.692;2023-02-01T12:20:09;18.20;;;3.15;;
27746;SDS011;15138;51.012;4.692;2023-02-01T12:22:57;11.00;;;2.60;;
27746;SDS011;15138;51.012;4.692;2023-02-01T12:25:37;25.10;;;3.55;;
27746;SDS011;15138;51.012;4.692;2023-02-01T12:28:29;19.35;;;2.63;;
27746;SDS011;15138;51.012;4.692;2023-02-01T12:31:15;11.68;;;2.45;;
27746;SDS011;15138;51.012;4.692;2023-02-01T12:33:59;29.17;;;3.53;;
27746;SDS011;15138;51.012;4.692;2023-02-01T12:36:57;21.15;;;3.42;;
27746;SDS011;15138;51.012;4.692;2023-02-01T12:39:37;14.02;;;2.25;;
27746;SDS011;15138;51.012;4.692;2023-02-01T12:42:11;11.10;;;2.10;;
27746;SDS011;15138;51.012;4.692;2023-02-01T12:44:45;19.13;;;2.97;;
27746;SDS011;15138;51.012;4.692;2023-02-01T12:47:21;18.60;;;3.13;;
27746;SDS011;15138;51.012;4.692;2023-02-01T12:52:25;9.45;;;1.52;;
27746;SDS011;15138;51.012;4.692;2023-02-01T12:55:03;10.55;;;2.42;;
27746;SDS011;15138;51.012;4.692;2023-02-01T12:57:38;8.85;;;1.95;;
27746;SDS011;15138;51.012;4.692;2023-02-01T13:00:14;18.90;;;3.00;;
27746;SDS011;15138;51.012;4.692;2023-02-01T13:02:52;17.50;;;3.25;;
27746;SDS011;15138;51.012;4.692;2023-02-01T13:05:28;8.65;;;1.27;;
27746;SDS011;15138;51.012;4.692;2023-02-01T13:08:02;9.82;;;1.70;;
27746;SDS011;15138;51.012;4.692;2023-02-01T13:10:37;15.40;;;2.20;;
27746;SDS011;15138;51.012;4.692;2023-02-01T13:13:11;15.60;;;2.67;;
27746;SDS011;15138;51.012;4.692;2023-02-01T13:15:47;13.18;;;2.33;;
27746;SDS011;15138;51.012;4.692;2023-02-01T13:18:19;16.58;;;2.83;;
27746;SDS011;15138;51.012;4.692;2023-02-01T13:20:53;16.20;;;2.33;;
27746;SDS011;15138;51.012;4.692;2023-02-01T13:23:27;6.72;;;1.77;;
27746;SDS011;15138;51.012;4.692;2023-02-01T13:25:58;10.38;;;2.55;;
27746;SDS011;15138;51.012;4.692;2023-02-01T13:28:28;14.90;;;2.58;;
27746;SDS011;15138;51.012;4.692;2023-02-01T13:31:03;12.80;;;2.33;;
27746;SDS011;15138;51.012;4.692;2023-02-01T13:33:52;15.10;;;2.58;;
27746;SDS011;15138;51.012;4.692;2023-02-01T13:39:28;20.67;;;3.20;;
27746;SDS011;15138;51.012;4.692;2023-02-01T13:42:18;20.90;;;2.58;;
27746;SDS011;15138;51.012;4.692;2023-02-01T13:44:49;8.20;;;1.63;;
27746;SDS011;15138;51.012;4.692;2023-02-01T13:47:22;6.65;;;1.70;;
27746;SDS011;15138;51.012;4.692;2023-02-01T13:49:54;11.60;;;2.30;;
27746;SDS011;15138;51.012;4.692;2023-02-01T13:52:26;9.40;;;1.75;;
27746;SDS011;15138;51.012;4.692;2023-02-01T13:55:02;7.38;;;1.38;;
27746;SDS011;15138;51.012;4.692;2023-02-01T13:57:43;4.20;;;1.50;;
27746;SDS011;15138;51.012;4.692;2023-02-01T14:00:25;16.25;;;2.80;;
27746;SDS011;15138;51.012;4.692;2023-02-01T14:05:57;19.05;;;2.75;;
27746;SDS011;15138;51.012;4.692;2023-02-01T14:08:45;13.88;;;2.35;;
27746;SDS011;15138;51.012;4.692;2023-02-01T14:11:34;5.95;;;1.40;;
27746;SDS011;15138;51.012;4.692;2023-02-01T14:23:11;15.32;;;2.45;;
27746;SDS011;15138;51.012;4.692;2023-02-01T14:25:43;26.90;;;3.45;;
27746;SDS011;15138;51.012;4.692;2023-02-01T14:28:19;8.70;;;1.45;;
27746;SDS011;15138;51.012;4.692;2023-02-01T14:30:53;21.00;;;2.88;;
27746;SDS011;15138;51.012;4.692;2023-02-01T14:33:26;16.55;;;2.65;;
27746;SDS011;15138;51.012;4.692;2023-02-01T14:35:57;6.72;;;1.05;;
27746;SDS011;15138;51.012;4.692;2023-02-01T14:38:33;10.57;;;2.05;;
27746;SDS011;15138;51.012;4.692;2023-02-01T14:41:16;15.90;;;2.60;;
27746;SDS011;15138;51.012;4.692;2023-02-01T14:47:03;10.63;;;1.30;;
27746;SDS011;15138;51.012;4.692;2023-02-01T14:49:37;7.00;;;1.85;;
27746;SDS011;15138;51.012;4.692;2023-02-01T14:52:11;12.80;;;2.22;;
27746;SDS011;15138;51.012;4.692;2023-02-01T14:54:44;13.18;;;2.08;;
27746;SDS011;15138;51.012;4.692;2023-02-01T14:57:18;14.85;;;3.00;;
27746;SDS011;15138;51.012;4.692;2023-02-01T14:59:48;15.60;;;2.40;;
27746;SDS011;15138;51.012;4.692;2023-02-01T15:02:23;14.00;;;2.33;;
27746;SDS011;15138;51.012;4.692;2023-02-01T15:04:55;18.35;;;2.92;;
27746;SDS011;15138;51.012;4.692;2023-02-01T15:07:24;15.18;;;2.60;;
27746;SDS011;15138;51.012;4.692;2023-02-01T15:09:54;13.32;;;2.30;;
27746;SDS011;15138;51.012;4.692;2023-02-01T15:12:26;17.75;;;3.83;;
27746;SDS011;15138;51.012;4.692;2023-02-01T15:15:09;11.98;;;2.03;;
27746;SDS011;15138;51.012;4.692;2023-02-01T15:17:40;13.57;;;2.20;;
27746;SDS011;15138;51.012;4.692;2023-02-01T15:20:14;17.80;;;2.88;;
27746;SDS011;15138;51.012;4.692;2023-02-01T15:25:20;25.10;;;3.95;;
27746;SDS011;15138;51.012;4.692;2023-02-01T15:27:50;14.00;;;1.65;;
27746;SDS011;15138;51.012;4.692;2023-02-01T15:30:20;15.90;;;3.25;;
27746;SDS011;15138;51.012;4.692;2023-02-01T15:32:50;14.65;;;3.40;;
27746;SDS011;15138;51.012;4.692;2023-02-01T15:35:34;22.40;;;3.38;;
27746;SDS011;15138;51.012;4.692;2023-02-01T15:38:20;24.23;;;3.73;;
27746;SDS011;15138;51.012;4.692;2023-02-01T15:41:07;17.83;;;3.33;;
27746;SDS011;15138;51.012;4.692;2023-02-01T15:43:40;21.08;;;3.60;;
27746;SDS011;15138;51.012;4.692;2023-02-01T15:46:12;15.82;;;2.90;;
27746;SDS011;15138;51.012;4.692;2023-02-01T15:48:43;11.68;;;1.80;;
27746;SDS011;15138;51.012;4.692;2023-02-01T15:51:17;23.20;;;4.18;;